Time;durP1;ratioP1;P1;durP2;ratioP2;P2;SDS_P1;SDS_P2;PMS_P1;PMS_P2;Temp;Humidity;BMP_temperature;BMP_pressure;BME280_temperature;BME280_humidity;BME280_pressure;Samples;Min_cycle;Max_cycle;Signal;HPM_P1;HPM_P2
2024/01/17 00:00:54;;;;;;;5.68;2.72;;;2.10;71.50;;;;;;5043466;28;20442;-64
2024/01/17 00:03:20;;;;;;;3.70;2.85;;;2.00;71.60;;;;;;5030562;28;20026;-64
2024/01/17 00:05:46;;;;;;;8.88;3.38;;;2.00;71.60;;;;;;5038944;28;20128;-65
2024/01/17 00:08:12;;;;;;;6.35;3.63;;;2.00;71.70;;;;;;5076445;28;20032;-65
2024/01/17 00:10:37;;;;;;;4.28;2.95;;;1.90;71.90;;;;;;5040398;28;20590;-64
2024/01/17 00:13:03;;;;;;;6.60;3.75;;;1.90;71.90;;;;;;5043487;28;20034;-64
2024/01/17 00:15:30;;;;;;;6.60;4.25;;;1.90;72.00;;;;;;5040363;28;20037;-64
2024/01/17 00:17:56;;;;;;;7.20;3.00;;;1.80;72.10;;;;;;5033794;28;20038;-64
2024/01/17 00:20:22;;;;;;;3.20;2.60;;;1.80;72.30;;;;;;5037720;28;20029;-63
2024/01/17 00:22:49;;;;;;;11.55;3.65;;;1.80;72.30;;;;;;5040795;28;20032;-64
2024/01/17 00:25:15;;;;;;;3.97;2.85;;;1.80;72.40;;;;;;5042023;28;21055;-63
2024/01/17 00:27:41;;;;;;;6.00;2.97;;;1.80;72.50;;;;;;5035938;28;20041;-64
2024/01/17 00:30:07;;;;;;;6.82;3.17;;;1.70;72.60;;;;;;5041294;28;20033;-65
2024/01/17 00:32:34;;;;;;;6.45;2.65;;;1.70;72.60;;;;;;5046888;28;20115;-65
2024/01/17 00:35:00;;;;;;;5.15;3.38;;;1.80;72.60;;;;;;5033107;28;20484;-64
2024/01/17 00:37:25;;;;;;;4.35;2.45;;;1.70;72.50;;;;;;5034311;28;20163;-64
2024/01/17 00:39:51;;;;;;;4.63;2.72;;;1.80;72.50;;;;;;5037135;28;20025;-64
2024/01/17 00:42:17;;;;;;;4.80;2.83;;;1.80;72.50;;;;;;5034949;28;20421;-63
2024/01/17 00:44:43;;;;;;;5.10;3.05;;;1.80;72.40;;;;;;5035347;28;20025;-63
2024/01/17 00:47:08;;;;;;;13.75;3.45;;;1.80;72.50;;;;;;5044320;28;20033;-63
2024/01/17 00:49:37;;;;;;;11.10;3.70;;;1.70;72.50;;;;;;5040938;28;20074;-64
2024/01/17 00:52:03;;;;;;;5.97;3.13;;;1.70;72.60;;;;;;5038032;28;20041;-64
2024/01/17 00:54:29;;;;;;;4.53;2.45;;;1.70;72.60;;;;;;5040932;28;20124;-65
2024/01/17 00:56:54;;;;;;;5.82;3.05;;;1.70;72.60;;;;;;5052793;28;20034;-64
2024/01/17 00:59:20;;;;;;;4.50;2.60;;;1.70;72.60;;;;;;5036365;28;20056;-63
2024/01/17 01:01:46;;;;;;;8.38;2.97;;;1.80;72.70;;;;;;5036403;28;20033;-63
2024/01/17 01:04:11;;;;;;;4.05;3.35;;;1.80;72.70;;;;;;5032484;28;20397;-63
2024/01/17 01:06:37;;;;;;;5.13;2.35;;;1.70;72.60;;;;;;5041478;28;20067;-65
2024/01/17 01:09:03;;;;;;;3.60;2.83;;;1.70;72.70;;;;;;5032665;28;20036;-64
2024/01/17 01:11:32;;;;;;;3.35;2.33;;;1.70;72.70;;;;;;5036108;28;20026;-64
2024/01/17 01:14:01;;;;;;;6.40;3.47;;;1.70;72.80;;;;;;5035782;28;20029;-64
2024/01/17 01:16:27;;;;;;;4.43;3.25;;;1.70;72.70;;;;;;5039204;28;20425;-63
2024/01/17 01:18:54;;;;;;;9.10;2.67;;;1.70;72.70;;;;;;5026195;28;20056;-64
2024/01/17 01:21:20;;;;;;;9.55;3.22;;;1.70;72.70;;;;;;5041192;28;20021;-63
2024/01/17 01:23:46;;;;;;;7.30;3.10;;;1.70;72.80;;;;;;5033864;28;20048;-64
2024/01/17 01:26:14;;;;;;;3.15;2.60;;;1.70;72.90;;;;;;5037748;28;20037;-65
2024/01/17 01:28:40;;;;;;;6.15;3.50;;;1.60;72.90;;;;;;5031471;28;20038;-63
2024/01/17 01:31:06;;;;;;;2.40;1.92;;;1.60;73.10;;;;;;5046439;28;20522;-63
2024/01/17 01:33:33;;;;;;;4.32;3.33;;;1.60;73.10;;;;;;5040162;28;20485;-65
2024/01/17 01:35:58;;;;;;;6.35;3.25;;;1.60;73.00;;;;;;5035700;28;20036;-64
2024/01/17 01:38:24;;;;;;;3.20;2.10;;;1.60;73.00;;;;;;5035109;28;20237;-64
2024/01/17 01:40:50;;;;;;;5.10;2.33;;;1.60;72.90;;;;;;5034674;28;20455;-65
2024/01/17 01:43:20;;;;;;;7.20;2.72;;;1.60;72.90;;;;;;5030408;28;20488;-65
2024/01/17 01:46:00;;;;;;;5.47;2.78;;;1.60;72.90;;;;;;5043502;28;20032;-65
2024/01/17 01:48:25;;;;;;;4.97;2.30;;;1.60;72.90;;;;;;5034502;28;20041;-65
2024/01/17 01:50:51;;;;;;;7.45;3.20;;;1.50;72.90;;;;;;5034249;28;20037;-65
2024/01/17 01:53:17;;;;;;;5.22;2.35;;;1.50;73.00;;;;;;5034118;28;20037;-65
2024/01/17 01:55:43;;;;;;;3.22;2.45;;;1.50;73.00;;;;;;5039208;28;20048;-65
2024/01/17 01:58:09;;;;;;;3.20;2.72;;;1.50;73.00;;;;;;5041693;28;20460;-64
2024/01/17 02:00:35;;;;;;;5.72;2.97;;;1.50;73.70;;;;;;5034137;28;20118;-64
2024/01/17 02:03:01;;;;;;;3.53;2.42;;;1.50;73.10;;;;;;5034560;28;20025;-63
2024/01/17 02:05:27;;;;;;;3.88;2.50;;;1.50;73.20;;;;;;5037448;28;20086;-65
2024/01/17 02:07:54;;;;;;;2.60;2.20;;;1.50;73.10;;;;;;5028401;28;20044;-65
2024/01/17 02:10:21;;;;;;;4.15;2.58;;;1.40;73.10;;;;;;5030725;28;20021;-65
2024/01/17 02:12:49;;;;;;;6.40;2.60;;;1.30;73.20;;;;;;5032249;28;20079;-65
2024/01/17 02:15:15;;;;;;;7.35;2.72;;;1.30;74.00;;;;;;5033122;28;20056;-64
2024/01/17 02:17:42;;;;;;;3.08;2.40;;;1.30;73.40;;;;;;5033202;28;20080;-64
2024/01/17 02:20:08;;;;;;;2.25;1.73;;;1.40;73.30;;;;;;5031348;28;20087;-63
2024/01/17 02:22:34;;;;;;;5.53;3.33;;;1.40;73.30;;;;;;5032505;28;20461;-63
2024/01/17 02:25:04;;;;;;;4.05;2.22;;;1.40;73.30;;;;;;5031969;28;20056;-63
2024/01/17 02:27:30;;;;;;;6.95;2.65;;;1.30;73.40;;;;;;5037384;28;20040;-63
2024/01/17 02:29:56;;;;;;;3.47;2.22;;;1.30;73.40;;;;;;5028557;28;20100;-64
2024/01/17 02:32:22;;;;;;;2.28;2.08;;;1.20;73.50;;;;;;5031623;28;20025;-64
2024/01/17 02:34:49;;;;;;;6.63;2.67;;;1.20;73.60;;;;;;5040588;28;20037;-65
2024/01/17 02:37:15;;;;;;;4.28;3.03;;;1.20;73.60;;;;;;5033852;28;20507;-65
2024/01/17 02:39:40;;;;;;;5.32;3.35;;;1.10;73.70;;;;;;5033051;28;20041;-64
2024/01/17 02:42:06;;;;;;;4.35;2.63;;;1.10;73.80;;;;;;5036468;28;20467;-63
2024/01/17 02:44:32;;;;;;;5.97;2.65;;;1.00;73.80;;;;;;5031578;28;20033;-64
2024/01/17 02:46:57;;;;;;;5.43;2.88;;;1.00;73.90;;;;;;5039685;28;20030;-64
2024/01/17 02:49:23;;;;;;;6.45;2.80;;;1.00;74.10;;;;;;5031012;28;20419;-64
2024/01/17 02:51:49;;;;;;;6.28;3.17;;;1.00;74.10;;;;;;5031039;28;20033;-63
2024/01/17 02:54:14;;;;;;;2.88;2.10;;;1.00;74.10;;;;;;5034763;28;20087;-64
2024/01/17 02:56:40;;;;;;;4.22;2.75;;;1.00;74.10;;;;;;5038763;28;20530;-63
2024/01/17 02:59:07;;;;;;;3.65;2.70;;;1.00;74.00;;;;;;5034735;28;20025;-64
2024/01/17 03:01:33;;;;;;;4.75;2.22;;;1.00;73.90;;;;;;5034818;28;20025;-63
2024/01/17 03:03:59;;;;;;;4.22;2.92;;;1.00;73.90;;;;;;5039949;28;20025;-63
2024/01/17 03:06:25;;;;;;;4.95;2.67;;;1.00;73.80;;;;;;5033834;28;20029;-63
2024/01/17 03:08:54;;;;;;;3.80;2.35;;;1.00;73.80;;;;;;5038664;28;20029;-63
2024/01/17 03:11:19;;;;;;;3.65;2.30;;;1.00;73.80;;;;;;5023399;28;20068;-63
2024/01/17 03:13:45;;;;;;;8.07;2.92;;;1.00;73.70;;;;;;5035242;28;20114;-64
2024/01/17 03:16:13;;;;;;;12.45;2.60;;;1.00;73.70;;;;;;5038574;28;20033;-63
2024/01/17 03:18:39;;;;;;;10.07;2.25;;;1.00;73.70;;;;;;5031366;28;20052;-63
2024/01/17 03:21:04;;;;;;;3.00;2.38;;;1.00;73.60;;;;;;5035158;28;20117;-63
2024/01/17 03:23:30;;;;;;;3.95;2.67;;;1.00;73.60;;;;;;5036026;28;20416;-63
2024/01/17 03:25:56;;;;;;;4.82;2.75;;;0.90;73.60;;;;;;5037278;28;20476;-63
2024/01/17 03:28:22;;;;;;;6.95;2.33;;;0.90;73.70;;;;;;5035518;28;20025;-63
2024/01/17 03:30:48;;;;;;;2.97;2.47;;;0.90;73.60;;;;;;5034731;28;20480;-63
2024/01/17 03:33:14;;;;;;;3.35;2.85;;;0.90;73.70;;;;;;5030866;28;20032;-64
2024/01/17 03:35:40;;;;;;;5.65;3.22;;;1.00;73.60;;;;;;5050012;28;20036;-63
2024/01/17 03:38:05;;;;;;;4.40;2.83;;;0.90;73.50;;;;;;5036549;28;20083;-63
2024/01/17 03:40:31;;;;;;;4.38;2.72;;;0.90;73.60;;;;;;5030617;28;20112;-64
2024/01/17 03:42:57;;;;;;;6.25;2.42;;;0.80;73.60;;;;;;5032196;28;20106;-65
2024/01/17 03:45:22;;;;;;;5.00;2.72;;;0.90;73.60;;;;;;5037506;28;20402;-63
2024/01/17 03:47:48;;;;;;;4.50;2.70;;;0.80;73.60;;;;;;5037416;28;20083;-63
2024/01/17 03:50:14;;;;;;;7.18;2.83;;;0.80;73.60;;;;;;5037495;28;20049;-63
2024/01/17 03:52:39;;;;;;;9.10;2.42;;;0.80;73.50;;;;;;5035217;28;20352;-63
2024/01/17 03:55:05;;;;;;;4.70;2.97;;;0.90;73.60;;;;;;5038069;28;20037;-63
2024/01/17 03:57:31;;;;;;;6.53;2.45;;;0.80;73.60;;;;;;5042123;28;20036;-63
2024/01/17 03:59:57;;;;;;;3.65;2.55;;;0.80;73.70;;;;;;5033965;28;20427;-63
2024/01/17 04:02:23;;;;;;;5.40;2.38;;;0.80;73.60;;;;;;5039568;28;20029;-65
2024/01/17 04:04:49;;;;;;;5.28;2.78;;;0.80;73.60;;;;;;5040801;28;20670;-64
2024/01/17 04:07:14;;;;;;;6.55;3.05;;;0.80;73.60;;;;;;5039489;28;20488;-64
2024/01/17 04:09:41;;;;;;;3.72;2.67;;;0.80;73.60;;;;;;5039264;28;20159;-64
2024/01/17 04:12:07;;;;;;;5.57;3.42;;;0.80;73.60;;;;;;5038967;28;20084;-64
2024/01/17 04:14:33;;;;;;;4.80;2.90;;;0.80;73.60;;;;;;5039114;28;20044;-63
2024/01/17 04:16:58;;;;;;;2.88;1.92;;;0.80;73.60;;;;;;5035133;28;20037;-63
2024/01/17 04:19:24;;;;;;;3.33;2.45;;;0.80;73.60;;;;;;5031502;28;20539;-63
2024/01/17 04:21:56;;;;;;;5.07;2.47;;;0.80;73.50;;;;;;5032175;28;20027;-63
2024/01/17 04:24:23;;;;;;;4.40;2.67;;;0.90;73.50;;;;;;5040103;28;20025;-64
2024/01/17 04:26:49;;;;;;;3.70;2.15;;;0.90;73.40;;;;;;5036091;28;20113;-64
2024/01/17 04:29:14;;;;;;;2.70;1.92;;;0.90;73.40;;;;;;5066663;28;20113;-63
2024/01/17 04:31:40;;;;;;;8.10;2.65;;;0.90;73.40;;;;;;5033929;28;20041;-64
2024/01/17 04:34:06;;;;;;;3.92;2.42;;;1.00;73.30;;;;;;5037406;28;20083;-63
2024/01/17 04:36:31;;;;;;;6.50;2.58;;;1.00;73.30;;;;;;5033306;28;20045;-63
2024/01/17 04:38:57;;;;;;;3.72;2.55;;;1.00;73.20;;;;;;5071613;28;20037;-63
2024/01/17 04:41:23;;;;;;;6.40;3.75;;;1.00;73.20;;;;;;5030593;28;20048;-63
2024/01/17 04:43:49;;;;;;;3.85;3.00;;;0.90;73.10;;;;;;5058536;28;20061;-63
2024/01/17 04:46:16;;;;;;;2.80;1.80;;;0.90;73.20;;;;;;5039602;28;20091;-63
2024/01/17 04:48:43;;;;;;;3.72;2.80;;;0.90;73.30;;;;;;5038744;28;20036;-63
2024/01/17 04:51:10;;;;;;;5.60;2.15;;;0.90;73.40;;;;;;5035748;28;20494;-63
2024/01/17 04:53:43;;;;;;;8.27;2.67;;;0.90;73.40;;;;;;5036985;28;20196;-64
2024/01/17 04:56:10;;;;;;;3.58;2.60;;;0.90;73.40;;;;;;5037509;28;20025;-64
2024/01/17 04:58:36;;;;;;;2.80;2.38;;;0.90;73.50;;;;;;5039109;28;20025;-64
2024/01/17 05:01:04;;;;;;;3.78;2.58;;;0.90;73.50;;;;;;5037632;28;20465;-65
2024/01/17 05:03:29;;;;;;;4.07;3.03;;;0.90;73.40;;;;;;5032973;28;20117;-64
2024/01/17 05:05:55;;;;;;;4.28;2.33;;;1.00;73.40;;;;;;5043902;28;20037;-64
2024/01/17 05:08:21;;;;;;;15.50;3.15;;;1.00;73.30;;;;;;5038267;28;20037;-63
2024/01/17 05:10:47;;;;;;;8.10;2.70;;;0.90;73.30;;;;;;5036977;28;20037;-63
2024/01/17 05:13:13;;;;;;;3.55;2.40;;;1.00;73.50;;;;;;5038357;28;20025;-64
2024/01/17 05:15:39;;;;;;;3.85;2.35;;;0.90;73.40;;;;;;5036614;28;20128;-63
2024/01/17 05:18:06;;;;;;;3.65;2.20;;;0.90;73.50;;;;;;5036104;28;20080;-63
2024/01/17 05:20:33;;;;;;;3.90;2.40;;;0.90;73.50;;;;;;5039656;28;20074;-63
2024/01/17 05:22:59;;;;;;;5.88;2.92;;;0.90;73.70;;;;;;5031711;28;20036;-63
2024/01/17 05:25:26;;;;;;;4.00;2.13;;;0.90;73.70;;;;;;5031156;28;20034;-63
2024/01/17 05:27:54;;;;;;;4.00;2.85;;;0.80;74.40;;;;;;5040200;28;20624;-63
2024/01/17 05:30:24;;;;;;;5.75;2.70;;;0.90;74.00;;;;;;5032326;28;20491;-63
2024/01/17 05:32:51;;;;;;;2.03;1.83;;;0.80;73.80;;;;;;5041671;28;20435;-63
2024/01/17 05:35:16;;;;;;;2.92;2.50;;;0.80;73.80;;;;;;5037040;28;20028;-63
2024/01/17 05:37:43;;;;;;;4.60;2.85;;;0.80;73.80;;;;;;5044710;28;20492;-63
2024/01/17 05:40:10;;;;;;;7.97;2.25;;;0.80;73.90;;;;;;5035632;28;20099;-64
2024/01/17 05:42:37;;;;;;;5.95;2.63;;;0.80;73.90;;;;;;5033327;28;20532;-65
2024/01/17 05:45:03;;;;;;;4.13;2.30;;;0.90;73.90;;;;;;5038022;28;20049;-64
2024/01/17 05:47:30;;;;;;;4.18;2.47;;;0.90;74.00;;;;;;5038269;28;20034;-63
2024/01/17 05:49:56;;;;;;;3.05;2.53;;;0.80;73.90;;;;;;5031155;28;20423;-63
2024/01/17 05:52:23;;;;;;;6.10;2.25;;;0.80;74.00;;;;;;5025648;28;20384;-63
2024/01/17 05:54:49;;;;;;;7.78;3.70;;;0.80;74.00;;;;;;5031571;28;20040;-63
2024/01/17 05:57:14;;;;;;;5.70;2.88;;;0.90;74.10;;;;;;5035522;28;20025;-63
2024/01/17 05:59:40;;;;;;;4.75;3.08;;;0.80;73.90;;;;;;5033253;28;20112;-63
2024/01/17 06:02:06;;;;;;;3.55;2.38;;;0.80;73.90;;;;;;5026235;28;20040;-63
2024/01/17 06:04:33;;;;;;;3.63;2.80;;;0.80;73.90;;;;;;5034068;28;20045;-63
2024/01/17 06:06:59;;;;;;;4.32;2.67;;;0.80;74.00;;;;;;5033230;28;20147;-63
2024/01/17 06:09:25;;;;;;;8.05;3.15;;;0.80;74.00;;;;;;5035174;28;20032;-63
2024/01/17 06:11:50;;;;;;;7.95;2.70;;;0.80;74.10;;;;;;5028972;28;20057;-63
2024/01/17 06:14:16;;;;;;;5.10;2.53;;;0.70;74.10;;;;;;5037721;28;20543;-63
2024/01/17 06:16:42;;;;;;;4.45;3.35;;;0.70;74.20;;;;;;5039926;28;20033;-64
2024/01/17 06:19:07;;;;;;;3.47;2.38;;;0.70;74.30;;;;;;5037542;28;20054;-63
2024/01/17 06:21:33;;;;;;;6.28;3.20;;;0.70;74.40;;;;;;5045281;28;20033;-63
2024/01/17 06:23:59;;;;;;;3.85;2.50;;;0.70;74.50;;;;;;5038132;28;20104;-63
2024/01/17 06:26:24;;;;;;;6.50;3.53;;;0.70;74.60;;;;;;5038387;28;20025;-63
2024/01/17 06:28:50;;;;;;;7.88;2.92;;;0.70;74.50;;;;;;5033191;28;20025;-64
2024/01/17 06:31:24;;;;;;;2.65;1.95;;;0.70;74.50;;;;;;5039157;28;20992;-64
2024/01/17 06:33:53;;;;;;;4.07;2.65;;;0.70;74.50;;;;;;5038781;28;20075;-64
2024/01/17 06:36:20;;;;;;;5.50;2.78;;;0.70;74.50;;;;;;5034447;28;20028;-64
2024/01/17 06:38:45;;;;;;;5.78;2.55;;;0.70;74.60;;;;;;5038384;28;20075;-64
2024/01/17 06:41:11;;;;;;;5.82;3.53;;;0.60;74.70;;;;;;5035133;28;20026;-64
2024/01/17 06:43:37;;;;;;;3.97;2.83;;;0.60;74.80;;;;;;5038552;28;20025;-64
2024/01/17 06:46:03;;;;;;;7.70;3.22;;;0.60;74.80;;;;;;5034042;28;20045;-64
2024/01/17 06:48:30;;;;;;;5.68;2.92;;;0.60;74.90;;;;;;5037494;28;20097;-64
2024/01/17 06:50:55;;;;;;;8.55;1.92;;;0.60;74.80;;;;;;5040626;28;20518;-64
2024/01/17 06:53:22;;;;;;;5.20;2.33;;;0.60;74.80;;;;;;5037708;28;20104;-64
2024/01/17 06:55:48;;;;;;;4.97;3.50;;;0.70;74.90;;;;;;5047857;28;20037;-64
2024/01/17 06:58:14;;;;;;;7.78;3.83;;;0.70;74.90;;;;;;5031897;28;20068;-64
2024/01/17 07:00:41;;;;;;;3.72;2.50;;;0.60;74.90;;;;;;5035657;28;20113;-64
2024/01/17 07:03:07;;;;;;;6.47;3.10;;;0.60;74.90;;;;;;5030973;28;20022;-64
2024/01/17 07:05:32;;;;;;;3.78;2.72;;;0.60;75.00;;;;;;5042677;28;20041;-64
2024/01/17 07:07:58;;;;;;;3.17;2.35;;;0.60;74.90;;;;;;5036304;28;20076;-64
2024/01/17 07:10:24;;;;;;;4.43;2.83;;;0.60;74.90;;;;;;5038926;28;20029;-63
2024/01/17 07:12:53;;;;;;;7.05;3.38;;;0.60;74.80;;;;;;5037247;28;20435;-64
2024/01/17 07:15:19;;;;;;;4.20;2.55;;;0.60;74.80;;;;;;5029623;28;20407;-64
2024/01/17 07:17:45;;;;;;;7.20;2.65;;;0.60;74.80;;;;;;5035187;28;20091;-64
2024/01/17 07:20:12;;;;;;;2.85;2.30;;;0.70;74.80;;;;;;5039503;28;20033;-63
2024/01/17 07:22:41;;;;;;;7.72;2.40;;;0.60;74.80;;;;;;5036586;28;20034;-64
2024/01/17 07:25:12;;;;;;;4.45;2.63;;;0.60;74.80;;;;;;5041029;28;20029;-64
2024/01/17 07:27:45;;;;;;;3.28;1.92;;;0.70;74.80;;;;;;5035691;28;20496;-64
2024/01/17 07:30:12;;;;;;;4.32;2.60;;;0.60;74.70;;;;;;5036573;28;20041;-63
2024/01/17 07:32:38;;;;;;;4.35;2.70;;;0.60;74.70;;;;;;5058028;28;20030;-63
2024/01/17 07:35:05;;;;;;;3.70;2.63;;;0.60;74.80;;;;;;5037511;28;20036;-63
2024/01/17 07:37:34;;;;;;;5.45;2.55;;;0.60;74.80;;;;;;5040572;28;20032;-63
2024/01/17 07:40:00;;;;;;;4.43;2.97;;;0.60;75.40;;;;;;5040997;28;20030;-64
2024/01/17 07:42:25;;;;;;;8.50;3.53;;;0.70;74.90;;;;;;5037488;28;20040;-64
2024/01/17 07:44:51;;;;;;;4.68;3.15;;;0.70;74.80;;;;;;5035329;28;20041;-64
2024/01/17 07:47:17;;;;;;;7.55;2.15;;;0.70;74.80;;;;;;5036830;28;20477;-64
2024/01/17 07:49:44;;;;;;;7.18;2.65;;;0.70;74.80;;;;;;5041890;28;20056;-64
2024/01/17 07:52:10;;;;;;;4.22;2.55;;;0.70;74.80;;;;;;5043204;28;20037;-64
2024/01/17 07:54:36;;;;;;;7.18;2.72;;;0.70;74.70;;;;;;5044387;28;20485;-64
2024/01/17 07:57:02;;;;;;;3.97;3.00;;;0.70;74.70;;;;;;5036503;28;20377;-64
2024/01/17 07:59:28;;;;;;;6.55;3.08;;;0.70;74.60;;;;;;5043919;28;20021;-64
2024/01/17 08:01:57;;;;;;;6.13;2.45;;;0.70;74.60;;;;;;5036858;28;20041;-64
2024/01/17 08:04:24;;;;;;;8.57;2.63;;;0.80;74.60;;;;;;5035880;28;20468;-65
2024/01/17 08:06:50;;;;;;;7.38;2.58;;;0.80;74.60;;;;;;5042785;28;20389;-64
2024/01/17 08:09:21;;;;;;;4.63;2.60;;;0.70;74.50;;;;;;5034431;28;20473;-64
2024/01/17 08:11:51;;;;;;;4.72;3.17;;;0.80;74.60;;;;;;5035802;28;20033;-64
2024/01/17 08:14:17;;;;;;;4.13;1.95;;;0.80;74.60;;;;;;5036580;28;20034;-64
2024/01/17 08:16:44;;;;;;;2.80;1.98;;;0.80;74.60;;;;;;5031176;28;20089;-64
2024/01/17 08:19:10;;;;;;;3.13;1.95;;;0.80;74.60;;;;;;5039778;28;20045;-65
2024/01/17 08:21:36;;;;;;;4.40;2.22;;;0.80;74.50;;;;;;5035494;28;20026;-64
2024/01/17 08:24:02;;;;;;;3.33;2.30;;;0.80;74.40;;;;;;5032321;28;20021;-64
2024/01/17 08:26:28;;;;;;;5.47;2.72;;;0.80;74.30;;;;;;5040276;28;20506;-64
2024/01/17 08:28:54;;;;;;;5.25;2.95;;;0.90;74.30;;;;;;5038551;28;20025;-64
2024/01/17 08:31:20;;;;;;;2.80;2.30;;;0.90;74.30;;;;;;5040358;28;20047;-64
2024/01/17 08:33:46;;;;;;;4.80;2.45;;;0.90;74.20;;;;;;5030434;28;20038;-64
2024/01/17 08:36:15;;;;;;;7.45;3.08;;;0.90;74.10;;;;;;5041583;28;20033;-63
2024/01/17 08:38:41;;;;;;;4.88;3.10;;;0.90;74.10;;;;;;5036100;28;20040;-63
2024/01/17 08:41:10;;;;;;;3.65;2.58;;;1.00;74.10;;;;;;5030299;28;20054;-63
2024/01/17 08:43:35;;;;;;;2.58;2.00;;;1.00;74.10;;;;;;5033530;28;20029;-63
2024/01/17 08:46:02;;;;;;;3.85;2.50;;;1.10;74.10;;;;;;5039659;28;20467;-63
2024/01/17 08:48:28;;;;;;;6.75;3.00;;;1.10;73.90;;;;;;5031429;28;20026;-63
2024/01/17 08:50:55;;;;;;;5.65;3.13;;;1.10;73.90;;;;;;5033725;28;20480;-64
2024/01/17 08:53:21;;;;;;;5.00;2.30;;;1.10;73.80;;;;;;5031924;28;20025;-63
2024/01/17 08:55:48;;;;;;;3.03;2.10;;;1.10;73.80;;;;;;5016522;28;20091;-64
2024/01/17 08:58:14;;;;;;;4.00;2.83;;;1.10;73.70;;;;;;5033712;28;20032;-65
2024/01/17 09:00:39;;;;;;;9.40;2.88;;;1.10;73.60;;;;;;5008811;28;20026;-64
2024/01/17 09:03:05;;;;;;;5.45;2.67;;;1.20;73.60;;;;;;5032459;28;20029;-64
2024/01/17 09:05:31;;;;;;;6.28;2.70;;;1.20;73.50;;;;;;5023956;28;20783;-64
2024/01/17 09:07:58;;;;;;;5.03;2.47;;;1.20;73.40;;;;;;5028701;28;20488;-64
2024/01/17 09:10:24;;;;;;;4.95;3.13;;;1.20;73.40;;;;;;5022411;28;20041;-64
2024/01/17 09:12:50;;;;;;;6.70;3.22;;;1.30;73.30;;;;;;5026698;28;20396;-63
2024/01/17 09:15:16;;;;;;;3.08;2.58;;;1.30;73.30;;;;;;5022891;28;20489;-63
2024/01/17 09:17:42;;;;;;;6.15;2.65;;;1.30;73.40;;;;;;5030109;28;20128;-64
2024/01/17 09:20:08;;;;;;;4.32;2.65;;;1.40;73.40;;;;;;5030612;28;20018;-63
2024/01/17 09:22:34;;;;;;;5.78;3.47;;;1.40;73.30;;;;;;5031274;28;20403;-63
2024/01/17 09:25:02;;;;;;;6.63;3.10;;;1.50;73.20;;;;;;5023306;28;20033;-63
2024/01/17 09:27:28;;;;;;;4.25;3.13;;;1.50;73.10;;;;;;5027096;28;20038;-63
2024/01/17 09:29:54;;;;;;;4.32;2.75;;;1.50;73.00;;;;;;5028910;28;20025;-63
2024/01/17 09:32:20;;;;;;;5.93;2.78;;;1.50;73.00;;;;;;5027659;28;20036;-63
2024/01/17 09:34:49;;;;;;;3.10;2.35;;;1.50;73.00;;;;;;5023581;28;20143;-63
2024/01/17 09:37:15;;;;;;;4.22;2.83;;;1.60;73.00;;;;;;5033910;28;20109;-63
2024/01/17 09:39:40;;;;;;;8.95;3.25;;;1.60;73.00;;;;;;5020468;28;20725;-66
2024/01/17 09:42:07;;;;;;;5.25;3.10;;;1.60;72.80;;;;;;5024268;28;20035;-66
2024/01/17 09:44:34;;;;;;;2.53;2.30;;;1.60;72.80;;;;;;5028634;28;20017;-66
2024/01/17 09:47:01;;;;;;;3.20;2.90;;;1.70;73.50;;;;;;5022211;28;20026;-66
2024/01/17 09:49:28;;;;;;;3.38;2.55;;;1.70;72.80;;;;;;5028564;28;20055;-64
2024/01/17 09:51:54;;;;;;;4.72;3.13;;;1.70;72.80;;;;;;5027902;28;20052;-66
2024/01/17 09:54:26;;;;;;;6.22;2.75;;;1.80;72.40;;;;;;5027665;28;20024;-65
2024/01/17 09:56:56;;;;;;;5.78;3.15;;;1.80;72.50;;;;;;5031319;28;20116;-64
2024/01/17 09:59:27;;;;;;;5.78;3.65;;;1.80;72.50;;;;;;5029578;28;20025;-64
2024/01/17 10:01:55;;;;;;;4.82;2.72;;;1.90;72.50;;;;;;5034107;28;20063;-63
2024/01/17 10:04:23;;;;;;;7.85;3.55;;;1.90;72.50;;;;;;5020079;28;20036;-63
2024/01/17 10:06:49;;;;;;;3.42;1.95;;;1.90;72.30;;;;;;5027453;28;20043;-63
2024/01/17 10:09:15;;;;;;;4.75;3.17;;;2.00;72.30;;;;;;5023992;28;20022;-64
2024/01/17 10:11:41;;;;;;;4.75;2.92;;;2.00;72.20;;;;;;5041870;28;20029;-64
2024/01/17 10:14:07;;;;;;;4.63;2.90;;;2.00;72.20;;;;;;5030424;28;20436;-64
2024/01/17 10:16:34;;;;;;;7.05;3.65;;;2.00;72.20;;;;;;5034880;28;20689;-66
2024/01/17 10:19:03;;;;;;;2.75;2.35;;;2.10;72.20;;;;;;5051496;28;20055;-63
2024/01/17 10:21:33;;;;;;;4.18;2.70;;;2.10;72.20;;;;;;5030049;28;20025;-63
2024/01/17 10:23:59;;;;;;;6.43;4.13;;;2.20;72.10;;;;;;5023093;28;20025;-65
2024/01/17 10:26:25;;;;;;;4.13;3.00;;;2.10;72.00;;;;;;5029367;28;20037;-64
2024/01/17 10:28:51;;;;;;;4.57;2.67;;;2.20;72.00;;;;;;5026281;28;20044;-65
2024/01/17 10:31:20;;;;;;;5.57;3.25;;;2.20;72.00;;;;;;5026229;28;20033;-66
2024/01/17 10:33:55;;;;;;;5.00;3.72;;;2.20;71.80;;;;;;5028782;28;20111;-65
2024/01/17 10:36:21;;;;;;;7.28;3.47;;;2.20;71.80;;;;;;5024007;28;20033;-65
2024/01/17 10:38:48;;;;;;;4.70;3.42;;;2.20;71.90;;;;;;5026587;28;20816;-63
2024/01/17 10:41:14;;;;;;;5.60;3.70;;;2.20;71.90;;;;;;5019492;28;20080;-66
2024/01/17 10:43:56;;;;;;;6.45;3.70;;;2.30;71.90;;;;;;5029257;28;20030;-66
2024/01/17 10:46:23;;;;;;;5.65;3.67;;;2.40;71.80;;;;;;5028241;28;20108;-66
2024/01/17 10:48:50;;;;;;;4.25;2.75;;;2.40;71.70;;;;;;5044710;28;20037;-63
2024/01/17 10:51:25;;;;;;;6.28;3.28;;;2.30;71.50;;;;;;5033707;28;20040;-63
2024/01/17 10:53:53;;;;;;;5.93;3.83;;;2.40;71.50;;;;;;5029835;28;20025;-63
2024/01/17 10:56:21;;;;;;;5.10;2.97;;;2.40;71.50;;;;;;5031710;28;20108;-63
2024/01/17 10:58:49;;;;;;;5.68;3.33;;;2.40;71.40;;;;;;5036954;28;20040;-63
2024/01/17 11:01:20;;;;;;;4.88;2.97;;;2.50;71.40;;;;;;5035507;28;20881;-66
2024/01/17 11:03:47;;;;;;;5.53;3.72;;;2.50;71.30;;;;;;5035186;28;20503;-66
2024/01/17 11:06:15;;;;;;;7.65;3.80;;;2.50;71.30;;;;;;5042859;28;20025;-66
2024/01/17 11:08:41;;;;;;;6.68;3.72;;;2.50;71.10;;;;;;5029466;28;20463;-63
2024/01/17 11:11:09;;;;;;;6.30;4.05;;;2.50;71.20;;;;;;5037231;28;20029;-65
2024/01/17 11:13:37;;;;;;;5.22;2.97;;;2.50;71.20;;;;;;5035125;28;20528;-66
2024/01/17 11:16:05;;;;;;;18.42;4.50;;;2.50;71.30;;;;;;5031381;28;20547;-67
2024/01/17 11:18:35;;;;;;;4.00;2.95;;;2.50;71.40;;;;;;5035792;28;20047;-67
2024/01/17 11:21:03;;;;;;;5.45;3.40;;;2.50;71.30;;;;;;5043483;28;20494;-63
2024/01/17 11:23:49;;;;;;;6.70;3.60;;;2.50;71.30;;;;;;5036239;28;20116;-67
2024/01/17 11:26:32;;;;;;;7.95;3.78;;;2.50;71.10;;;;;;5035188;28;20313;-67
2024/01/17 11:29:03;;;;;;;4.63;3.53;;;2.50;71.20;;;;;;5036807;28;20020;-67
2024/01/17 11:32:02;;;;;;;7.50;2.83;;;2.50;71.20;;;;;;5036366;28;20109;-67
2024/01/17 11:34:28;;;;;;;6.57;3.63;;;2.60;71.30;;;;;;5033409;28;20025;-67
2024/01/17 11:36:54;;;;;;;10.23;4.03;;;2.60;71.20;;;;;;5034479;28;20138;-67
2024/01/17 11:39:22;;;;;;;5.13;3.33;;;2.60;71.00;;;;;;5040537;28;20033;-67
2024/01/17 11:41:50;;;;;;;5.63;3.40;;;2.60;71.00;;;;;;5037764;28;20377;-67
2024/01/17 11:44:17;;;;;;;4.80;2.67;;;2.70;71.00;;;;;;5024867;28;20028;-63
2024/01/17 11:46:52;;;;;;;7.07;3.75;;;2.70;71.00;;;;;;5028523;28;20025;-63
2024/01/17 11:49:40;;;;;;;9.50;3.70;;;2.80;71.00;;;;;;5039071;28;20060;-63
2024/01/17 11:52:29;;;;;;;8.35;3.25;;;2.90;71.00;;;;;;5029658;28;20045;-67
2024/01/17 11:54:55;;;;;;;7.10;3.67;;;2.90;71.00;;;;;;5034414;28;20026;-67
2024/01/17 11:57:23;;;;;;;5.50;3.80;;;2.90;71.00;;;;;;5022473;28;20040;-67
2024/01/17 12:00:12;;;;;;;4.65;2.95;;;2.90;71.00;;;;;;5023728;28;20034;-67
2024/01/17 12:02:43;;;;;;;6.15;3.78;;;3.00;71.00;;;;;;5029940;28;20028;-67
2024/01/17 12:05:10;;;;;;;10.65;3.17;;;3.00;71.00;;;;;;5031203;28;20052;-67
2024/01/17 12:07:40;;;;;;;4.78;3.55;;;3.00;71.10;;;;;;5029648;28;20500;-67
2024/01/17 12:10:11;;;;;;;5.93;3.83;;;3.00;71.10;;;;;;5025318;28;20027;-63
2024/01/17 12:12:38;;;;;;;6.43;3.95;;;3.00;71.10;;;;;;5036233;28;20065;-63
2024/01/17 12:15:09;;;;;;;6.43;3.30;;;3.00;71.00;;;;;;5038353;28;20036;-63
2024/01/17 12:17:39;;;;;;;6.60;3.50;;;3.00;71.00;;;;;;5029769;28;20067;-63
2024/01/17 12:20:09;;;;;;;9.13;4.13;;;3.00;71.00;;;;;;5025560;28;20025;-63
2024/01/17 12:22:35;;;;;;;5.22;3.17;;;3.00;70.90;;;;;;5031771;28;20480;-63
2024/01/17 12:25:01;;;;;;;7.90;3.67;;;3.00;70.80;;;;;;5042373;28;20090;-63
2024/01/17 12:27:30;;;;;;;5.95;3.83;;;3.00;70.70;;;;;;5033569;28;20104;-63
2024/01/17 12:30:01;;;;;;;7.25;3.47;;;3.10;70.70;;;;;;5035592;28;20433;-63
2024/01/17 12:32:27;;;;;;;5.68;3.78;;;3.10;70.60;;;;;;5030166;28;20127;-63
2024/01/17 12:34:53;;;;;;;6.80;3.58;;;3.00;70.50;;;;;;5038829;28;20502;-63
2024/01/17 12:37:19;;;;;;;11.20;3.85;;;3.00;70.40;;;;;;5043174;28;20107;-63
2024/01/17 12:39:45;;;;;;;6.20;4.03;;;3.10;70.40;;;;;;5033669;28;20366;-63
2024/01/17 12:42:10;;;;;;;4.75;3.65;;;3.10;70.30;;;;;;5036347;28;20029;-63
2024/01/17 12:44:36;;;;;;;5.93;3.72;;;3.10;70.30;;;;;;5035139;28;20082;-67
2024/01/17 12:47:03;;;;;;;9.73;3.55;;;3.10;70.20;;;;;;5034095;28;20812;-63
2024/01/17 12:49:29;;;;;;;5.53;3.83;;;3.10;70.30;;;;;;5032826;28;20026;-67
2024/01/17 12:51:55;;;;;;;7.28;3.60;;;3.20;70.30;;;;;;5028343;28;20476;-67
2024/01/17 12:54:21;;;;;;;9.38;4.07;;;3.20;70.30;;;;;;5040988;28;20430;-63
2024/01/17 12:56:48;;;;;;;5.45;3.70;;;3.20;70.30;;;;;;5068948;28;20047;-63